sensor_id;sensor_type;location;lat;lon;timestamp;P1;durP1;ratioP1;P2;durP2;ratioP2
69161;SDS011;56269;51.738;21.652;2023-07-20T00:02:01;3.60;;;1.37;;
69161;SDS011;56269;51.738;21.652;2023-07-20T00:04:28;4.07;;;1.48;;
69161;SDS011;56269;51.738;21.652;2023-07-20T00:06:54;3.33;;;1.40;;
69161;SDS011;56269;51.738;21.652;2023-07-20T00:09:20;2.90;;;1.15;;
69161;SDS011;56269;51.738;21.652;2023-07-20T00:11:51;4.13;;;1.45;;
69161;SDS011;56269;51.738;21.652;2023-07-20T00:14:18;3.60;;;1.40;;
69161;SDS011;56269;51.738;21.652;2023-07-20T00:16:45;4.90;;;1.77;;
69161;SDS011;56269;51.738;21.652;2023-07-20T00:19:12;4.38;;;1.30;;
69161;SDS011;56269;51.738;21.652;2023-07-20T00:21:38;4.45;;;1.60;;
69161;SDS011;56269;51.738;21.652;2023-07-20T00:24:05;4.07;;;1.65;;
69161;SDS011;56269;51.738;21.652;2023-07-20T00:26:32;5.30;;;1.47;;
69161;SDS011;56269;51.738;21.652;2023-07-20T00:28:58;4.15;;;1.50;;
69161;SDS011;56269;51.738;21.652;2023-07-20T00:31:24;3.78;;;1.38;;
69161;SDS011;56269;51.738;21.652;2023-07-20T00:33:51;3.67;;;1.42;;
69161;SDS011;56269;51.738;21.652;2023-07-20T00:36:17;4.27;;;1.50;;
69161;SDS011;56269;51.738;21.652;2023-07-20T00:38:43;3.97;;;1.42;;
69161;SDS011;56269;51.738;21.652;2023-07-20T00:41:09;3.78;;;1.50;;
69161;SDS011;56269;51.738;21.652;2023-07-20T00:43:35;3.83;;;1.50;;
69161;SDS011;56269;51.738;21.652;2023-07-20T00:46:01;4.18;;;1.60;;
69161;SDS011;56269;51.738;21.652;2023-07-20T00:48:29;3.53;;;1.50;;
69161;SDS011;56269;51.738;21.652;2023-07-20T00:50:56;3.25;;;1.30;;
69161;SDS011;56269;51.738;21.652;2023-07-20T00:53:23;3.50;;;1.33;;
69161;SDS011;56269;51.738;21.652;2023-07-20T00:55:50;4.15;;;1.45;;
69161;SDS011;56269;51.738;21.652;2023-07-20T00:58:16;3.90;;;1.45;;
69161;SDS011;56269;51.738;21.652;2023-07-20T01:00:44;4.80;;;1.33;;
69161;SDS011;56269;51.738;21.652;2023-07-20T01:03:10;4.97;;;1.60;;
69161;SDS011;56269;51.738;21.652;2023-07-20T01:05:54;4.50;;;1.52;;
69161;SDS011;56269;51.738;21.652;2023-07-20T01:08:37;3.78;;;1.45;;
69161;SDS011;56269;51.738;21.652;2023-07-20T01:11:16;3.78;;;1.52;;
69161;SDS011;56269;51.738;21.652;2023-07-20T01:13:49;3.43;;;1.37;;
69161;SDS011;56269;51.738;21.652;2023-07-20T01:16:16;3.42;;;1.38;;
69161;SDS011;56269;51.738;21.652;2023-07-20T01:18:43;4.93;;;1.80;;
69161;SDS011;56269;51.738;21.652;2023-07-20T01:21:09;4.45;;;1.60;;
69161;SDS011;56269;51.738;21.652;2023-07-20T01:23:57;4.45;;;1.58;;
69161;SDS011;56269;51.738;21.652;2023-07-20T01:26:48;4.20;;;1.50;;
69161;SDS011;56269;51.738;21.652;2023-07-20T01:31:56;3.28;;;1.35;;
69161;SDS011;56269;51.738;21.652;2023-07-20T01:34:23;3.80;;;1.33;;
69161;SDS011;56269;51.738;21.652;2023-07-20T01:36:52;4.13;;;1.55;;
69161;SDS011;56269;51.738;21.652;2023-07-20T01:39:20;4.20;;;1.80;;
69161;SDS011;56269;51.738;21.652;2023-07-20T01:41:47;3.72;;;1.48;;
69161;SDS011;56269;51.738;21.652;2023-07-20T01:44:13;3.88;;;1.45;;
69161;SDS011;56269;51.738;21.652;2023-07-20T01:46:40;4.50;;;1.52;;
69161;SDS011;56269;51.738;21.652;2023-07-20T01:49:06;4.33;;;1.60;;
69161;SDS011;56269;51.738;21.652;2023-07-20T01:51:32;4.13;;;1.70;;
69161;SDS011;56269;51.738;21.652;2023-07-20T01:53:58;3.67;;;1.60;;
69161;SDS011;56269;51.738;21.652;2023-07-20T01:56:25;4.75;;;1.58;;
69161;SDS011;56269;51.738;21.652;2023-07-20T01:58:51;4.17;;;1.50;;
69161;SDS011;56269;51.738;21.652;2023-07-20T02:01:17;5.00;;;1.63;;
69161;SDS011;56269;51.738;21.652;2023-07-20T02:03:43;4.05;;;1.60;;
69161;SDS011;56269;51.738;21.652;2023-07-20T02:06:10;4.35;;;1.60;;
69161;SDS011;56269;51.738;21.652;2023-07-20T02:08:35;3.97;;;1.43;;
69161;SDS011;56269;51.738;21.652;2023-07-20T02:11:02;4.10;;;1.60;;
69161;SDS011;56269;51.738;21.652;2023-07-20T02:13:29;4.43;;;1.67;;
69161;SDS011;56269;51.738;21.652;2023-07-20T02:15:56;3.95;;;1.45;;
69161;SDS011;56269;51.738;21.652;2023-07-20T02:18:22;4.95;;;1.70;;
69161;SDS011;56269;51.738;21.652;2023-07-20T02:20:48;3.77;;;1.43;;
69161;SDS011;56269;51.738;21.652;2023-07-20T02:23:14;3.25;;;1.33;;
69161;SDS011;56269;51.738;21.652;2023-07-20T02:25:40;3.80;;;1.40;;
69161;SDS011;56269;51.738;21.652;2023-07-20T02:28:07;3.85;;;1.45;;
69161;SDS011;56269;51.738;21.652;2023-07-20T02:30:37;3.30;;;1.37;;
69161;SDS011;56269;51.738;21.652;2023-07-20T02:33:04;4.35;;;1.42;;
69161;SDS011;56269;51.738;21.652;2023-07-20T02:35:32;3.80;;;1.60;;
69161;SDS011;56269;51.738;21.652;2023-07-20T02:37:58;4.38;;;1.55;;
69161;SDS011;56269;51.738;21.652;2023-07-20T02:40:25;3.60;;;1.45;;
69161;SDS011;56269;51.738;21.652;2023-07-20T02:42:51;2.80;;;1.10;;
69161;SDS011;56269;51.738;21.652;2023-07-20T02:45:18;4.10;;;1.50;;
69161;SDS011;56269;51.738;21.652;2023-07-20T02:47:47;4.63;;;1.60;;
69161;SDS011;56269;51.738;21.652;2023-07-20T02:50:13;3.67;;;1.45;;
69161;SDS011;56269;51.738;21.652;2023-07-20T02:52:39;4.05;;;1.40;;
69161;SDS011;56269;51.738;21.652;2023-07-20T02:55:06;3.83;;;1.30;;
69161;SDS011;56269;51.738;21.652;2023-07-20T02:57:32;3.70;;;1.58;;
69161;SDS011;56269;51.738;21.652;2023-07-20T02:59:58;4.18;;;1.58;;
69161;SDS011;56269;51.738;21.652;2023-07-20T03:02:24;3.60;;;1.40;;
69161;SDS011;56269;51.738;21.652;2023-07-20T03:04:51;4.13;;;1.52;;
69161;SDS011;56269;51.738;21.652;2023-07-20T03:07:17;3.57;;;1.37;;
69161;SDS011;56269;51.738;21.652;2023-07-20T03:09:43;3.78;;;1.48;;
69161;SDS011;56269;51.738;21.652;2023-07-20T03:12:09;4.40;;;1.50;;
69161;SDS011;56269;51.738;21.652;2023-07-20T03:14:36;3.75;;;1.50;;
69161;SDS011;56269;51.738;21.652;2023-07-20T03:17:02;4.23;;;1.60;;
69161;SDS011;56269;51.738;21.652;2023-07-20T03:19:28;4.87;;;1.70;;
69161;SDS011;56269;51.738;21.652;2023-07-20T03:21:55;4.18;;;1.52;;
69161;SDS011;56269;51.738;21.652;2023-07-20T03:24:22;3.72;;;1.45;;
69161;SDS011;56269;51.738;21.652;2023-07-20T03:26:49;3.97;;;1.55;;
69161;SDS011;56269;51.738;21.652;2023-07-20T03:29:15;3.15;;;1.20;;
69161;SDS011;56269;51.738;21.652;2023-07-20T03:31:41;3.80;;;1.50;;
69161;SDS011;56269;51.738;21.652;2023-07-20T03:34:08;3.70;;;1.20;;
69161;SDS011;56269;51.738;21.652;2023-07-20T03:36:34;5.40;;;1.42;;
69161;SDS011;56269;51.738;21.652;2023-07-20T03:39:02;3.80;;;1.50;;
69161;SDS011;56269;51.738;21.652;2023-07-20T03:41:28;3.13;;;1.23;;
69161;SDS011;56269;51.738;21.652;2023-07-20T03:43:55;4.72;;;1.35;;
69161;SDS011;56269;51.738;21.652;2023-07-20T03:46:21;4.72;;;1.60;;
69161;SDS011;56269;51.738;21.652;2023-07-20T03:48:47;3.67;;;1.50;;
69161;SDS011;56269;51.738;21.652;2023-07-20T03:51:13;3.93;;;1.47;;
69161;SDS011;56269;51.738;21.652;2023-07-20T03:53:39;4.57;;;1.65;;
69161;SDS011;56269;51.738;21.652;2023-07-20T03:56:05;3.88;;;1.63;;
69161;SDS011;56269;51.738;21.652;2023-07-20T03:58:32;3.97;;;1.58;;
69161;SDS011;56269;51.738;21.652;2023-07-20T04:00:57;3.85;;;1.48;;
69161;SDS011;56269;51.738;21.652;2023-07-20T04:03:24;3.73;;;1.50;;
69161;SDS011;56269;51.738;21.652;2023-07-20T04:05:53;4.57;;;1.60;;
69161;SDS011;56269;51.738;21.652;2023-07-20T04:08:25;5.20;;;1.42;;
69161;SDS011;56269;51.738;21.652;2023-07-20T04:10:51;3.90;;;1.30;;
69161;SDS011;56269;51.738;21.652;2023-07-20T04:13:17;4.25;;;1.60;;
69161;SDS011;56269;51.738;21.652;2023-07-20T04:15:44;3.93;;;1.53;;
69161;SDS011;56269;51.738;21.652;2023-07-20T04:18:10;4.13;;;1.40;;
69161;SDS011;56269;51.738;21.652;2023-07-20T04:20:36;3.95;;;1.50;;
69161;SDS011;56269;51.738;21.652;2023-07-20T04:23:02;4.40;;;1.70;;
69161;SDS011;56269;51.738;21.652;2023-07-20T04:25:28;3.90;;;1.43;;
69161;SDS011;56269;51.738;21.652;2023-07-20T04:27:56;3.03;;;1.30;;
69161;SDS011;56269;51.738;21.652;2023-07-20T04:30:22;4.65;;;1.50;;
69161;SDS011;56269;51.738;21.652;2023-07-20T04:32:49;4.53;;;1.50;;
69161;SDS011;56269;51.738;21.652;2023-07-20T04:35:16;4.57;;;1.67;;
69161;SDS011;56269;51.738;21.652;2023-07-20T04:38:02;3.67;;;1.53;;
69161;SDS011;56269;51.738;21.652;2023-07-20T04:40:27;4.38;;;1.60;;
69161;SDS011;56269;51.738;21.652;2023-07-20T04:42:54;4.60;;;1.60;;
69161;SDS011;56269;51.738;21.652;2023-07-20T04:45:20;3.95;;;1.33;;
69161;SDS011;56269;51.738;21.652;2023-07-20T04:47:48;3.93;;;1.70;;
69161;SDS011;56269;51.738;21.652;2023-07-20T04:50:16;4.47;;;1.70;;
69161;SDS011;56269;51.738;21.652;2023-07-20T04:52:42;4.75;;;1.80;;
69161;SDS011;56269;51.738;21.652;2023-07-20T04:55:08;4.28;;;1.60;;
69161;SDS011;56269;51.738;21.652;2023-07-20T04:57:35;3.90;;;1.23;;
69161;SDS011;56269;51.738;21.652;2023-07-20T05:00:01;3.80;;;1.25;;
69161;SDS011;56269;51.738;21.652;2023-07-20T05:02:27;3.92;;;1.35;;
69161;SDS011;56269;51.738;21.652;2023-07-20T05:04:53;4.63;;;1.55;;
69161;SDS011;56269;51.738;21.652;2023-07-20T05:07:19;3.50;;;1.40;;
69161;SDS011;56269;51.738;21.652;2023-07-20T05:09:48;4.90;;;1.40;;
69161;SDS011;56269;51.738;21.652;2023-07-20T05:12:14;4.50;;;1.50;;
69161;SDS011;56269;51.738;21.652;2023-07-20T05:14:40;3.90;;;1.52;;
69161;SDS011;56269;51.738;21.652;2023-07-20T05:17:07;4.53;;;1.65;;
69161;SDS011;56269;51.738;21.652;2023-07-20T05:19:33;4.40;;;1.87;;
69161;SDS011;56269;51.738;21.652;2023-07-20T05:22:00;3.95;;;1.52;;
69161;SDS011;56269;51.738;21.652;2023-07-20T05:24:26;3.83;;;1.52;;
69161;SDS011;56269;51.738;21.652;2023-07-20T05:26:52;3.88;;;1.48;;
69161;SDS011;56269;51.738;21.652;2023-07-20T05:29:19;4.97;;;1.70;;
69161;SDS011;56269;51.738;21.652;2023-07-20T05:31:45;3.70;;;1.50;;
69161;SDS011;56269;51.738;21.652;2023-07-20T05:34:11;3.92;;;1.67;;
69161;SDS011;56269;51.738;21.652;2023-07-20T05:36:37;4.80;;;2.05;;
69161;SDS011;56269;51.738;21.652;2023-07-20T05:39:03;4.30;;;1.60;;
69161;SDS011;56269;51.738;21.652;2023-07-20T05:41:30;4.20;;;1.80;;
69161;SDS011;56269;51.738;21.652;2023-07-20T05:43:56;4.53;;;1.95;;
69161;SDS011;56269;51.738;21.652;2023-07-20T05:46:22;4.93;;;1.67;;
69161;SDS011;56269;51.738;21.652;2023-07-20T05:48:49;7.03;;;1.90;;
69161;SDS011;56269;51.738;21.652;2023-07-20T05:51:16;4.47;;;1.80;;
69161;SDS011;56269;51.738;21.652;2023-07-20T05:53:42;4.60;;;1.83;;
69161;SDS011;56269;51.738;21.652;2023-07-20T05:56:08;4.70;;;2.10;;
69161;SDS011;56269;51.738;21.652;2023-07-20T05:58:36;5.13;;;2.00;;
69161;SDS011;56269;51.738;21.652;2023-07-20T06:01:03;5.82;;;2.08;;
69161;SDS011;56269;51.738;21.652;2023-07-20T06:03:31;5.40;;;2.03;;
69161;SDS011;56269;51.738;21.652;2023-07-20T06:06:02;4.60;;;1.80;;
69161;SDS011;56269;51.738;21.652;2023-07-20T06:08:30;5.05;;;2.00;;
69161;SDS011;56269;51.738;21.652;2023-07-20T06:10:57;5.03;;;1.90;;
69161;SDS011;56269;51.738;21.652;2023-07-20T06:13:23;3.83;;;1.67;;
69161;SDS011;56269;51.738;21.652;2023-07-20T06:15:49;4.80;;;1.90;;
69161;SDS011;56269;51.738;21.652;2023-07-20T06:18:16;6.50;;;2.60;;
69161;SDS011;56269;51.738;21.652;2023-07-20T06:20:42;5.00;;;1.98;;
69161;SDS011;56269;51.738;21.652;2023-07-20T06:23:09;5.38;;;2.08;;
69161;SDS011;56269;51.738;21.652;2023-07-20T06:25:36;4.85;;;2.08;;
69161;SDS011;56269;51.738;21.652;2023-07-20T06:28:02;5.33;;;1.93;;
69161;SDS011;56269;51.738;21.652;2023-07-20T06:30:30;6.47;;;2.35;;
69161;SDS011;56269;51.738;21.652;2023-07-20T06:32:59;5.60;;;2.28;;
69161;SDS011;56269;51.738;21.652;2023-07-20T06:35:26;5.90;;;2.38;;
69161;SDS011;56269;51.738;21.652;2023-07-20T06:37:52;5.63;;;2.08;;
69161;SDS011;56269;51.738;21.652;2023-07-20T06:40:18;6.27;;;2.40;;
69161;SDS011;56269;51.738;21.652;2023-07-20T06:42:45;5.97;;;2.28;;
69161;SDS011;56269;51.738;21.652;2023-07-20T06:45:11;4.60;;;2.00;;
69161;SDS011;56269;51.738;21.652;2023-07-20T06:47:40;4.80;;;2.17;;
69161;SDS011;56269;51.738;21.652;2023-07-20T06:50:06;5.40;;;2.13;;
69161;SDS011;56269;51.738;21.652;2023-07-20T06:52:33;5.57;;;2.30;;
69161;SDS011;56269;51.738;21.652;2023-07-20T06:54:59;4.22;;;1.88;;
69161;SDS011;56269;51.738;21.652;2023-07-20T06:57:25;5.72;;;2.20;;
69161;SDS011;56269;51.738;21.652;2023-07-20T06:59:52;4.65;;;2.00;;
69161;SDS011;56269;51.738;21.652;2023-07-20T07:02:19;5.68;;;2.40;;
69161;SDS011;56269;51.738;21.652;2023-07-20T07:04:45;6.50;;;2.60;;
69161;SDS011;56269;51.738;21.652;2023-07-20T07:07:14;5.10;;;2.30;;
69161;SDS011;56269;51.738;21.652;2023-07-20T07:09:41;6.90;;;2.00;;
69161;SDS011;56269;51.738;21.652;2023-07-20T07:12:07;5.00;;;1.90;;
69161;SDS011;56269;51.738;21.652;2023-07-20T07:14:34;4.55;;;2.00;;
69161;SDS011;56269;51.738;21.652;2023-07-20T07:17:00;7.47;;;2.20;;
69161;SDS011;56269;51.738;21.652;2023-07-20T07:19:27;5.43;;;2.20;;
69161;SDS011;56269;51.738;21.652;2023-07-20T07:21:53;5.07;;;1.98;;
69161;SDS011;56269;51.738;21.652;2023-07-20T07:24:19;5.57;;;2.17;;
69161;SDS011;56269;51.738;21.652;2023-07-20T07:26:45;4.50;;;1.90;;
69161;SDS011;56269;51.738;21.652;2023-07-20T07:29:11;5.00;;;2.17;;
69161;SDS011;56269;51.738;21.652;2023-07-20T07:31:37;6.28;;;2.35;;
69161;SDS011;56269;51.738;21.652;2023-07-20T07:34:04;5.55;;;2.17;;
69161;SDS011;56269;51.738;21.652;2023-07-20T07:36:31;5.30;;;2.35;;
69161;SDS011;56269;51.738;21.652;2023-07-20T07:38:58;6.13;;;2.40;;
69161;SDS011;56269;51.738;21.652;2023-07-20T07:41:23;5.85;;;2.13;;
69161;SDS011;56269;51.738;21.652;2023-07-20T07:43:50;5.22;;;2.20;;
69161;SDS011;56269;51.738;21.652;2023-07-20T07:46:16;4.88;;;2.08;;
69161;SDS011;56269;51.738;21.652;2023-07-20T07:48:43;4.50;;;1.87;;
69161;SDS011;56269;51.738;21.652;2023-07-20T07:51:09;5.03;;;2.13;;
69161;SDS011;56269;51.738;21.652;2023-07-20T07:53:35;6.38;;;2.20;;
69161;SDS011;56269;51.738;21.652;2023-07-20T07:56:02;5.53;;;2.20;;
69161;SDS011;56269;51.738;21.652;2023-07-20T07:58:29;4.97;;;2.00;;
69161;SDS011;56269;51.738;21.652;2023-07-20T08:00:55;6.53;;;2.23;;
69161;SDS011;56269;51.738;21.652;2023-07-20T08:03:22;7.63;;;2.00;;
69161;SDS011;56269;51.738;21.652;2023-07-20T08:05:49;4.45;;;1.60;;
69161;SDS011;56269;51.738;21.652;2023-07-20T08:08:16;6.35;;;2.20;;
69161;SDS011;56269;51.738;21.652;2023-07-20T08:10:43;4.88;;;1.95;;
69161;SDS011;56269;51.738;21.652;2023-07-20T08:13:09;4.90;;;1.97;;
69161;SDS011;56269;51.738;21.652;2023-07-20T08:15:35;5.85;;;2.20;;
69161;SDS011;56269;51.738;21.652;2023-07-20T08:18:02;5.28;;;2.22;;
69161;SDS011;56269;51.738;21.652;2023-07-20T08:20:28;6.25;;;2.25;;
69161;SDS011;56269;51.738;21.652;2023-07-20T08:22:54;5.50;;;2.45;;
69161;SDS011;56269;51.738;21.652;2023-07-20T08:25:21;5.20;;;2.00;;
69161;SDS011;56269;51.738;21.652;2023-07-20T08:27:47;5.60;;;2.08;;
69161;SDS011;56269;51.738;21.652;2023-07-20T08:30:13;5.40;;;2.28;;
69161;SDS011;56269;51.738;21.652;2023-07-20T08:32:40;5.53;;;2.15;;
69161;SDS011;56269;51.738;21.652;2023-07-20T08:35:06;5.38;;;2.58;;
69161;SDS011;56269;51.738;21.652;2023-07-20T08:37:33;6.53;;;2.60;;
69161;SDS011;56269;51.738;21.652;2023-07-20T08:39:59;5.20;;;2.38;;
69161;SDS011;56269;51.738;21.652;2023-07-20T08:42:26;6.22;;;2.63;;
69161;SDS011;56269;51.738;21.652;2023-07-20T08:44:52;5.50;;;2.00;;
69161;SDS011;56269;51.738;21.652;2023-07-20T08:47:20;5.60;;;2.30;;
69161;SDS011;56269;51.738;21.652;2023-07-20T08:49:48;6.97;;;3.00;;
69161;SDS011;56269;51.738;21.652;2023-07-20T08:52:15;5.47;;;2.40;;
69161;SDS011;56269;51.738;21.652;2023-07-20T08:54:41;5.88;;;2.45;;
69161;SDS011;56269;51.738;21.652;2023-07-20T08:57:08;5.47;;;2.10;;
69161;SDS011;56269;51.738;21.652;2023-07-20T08:59:35;6.22;;;2.40;;
69161;SDS011;56269;51.738;21.652;2023-07-20T09:02:03;5.73;;;2.10;;
69161;SDS011;56269;51.738;21.652;2023-07-20T09:04:31;4.50;;;1.80;;
69161;SDS011;56269;51.738;21.652;2023-07-20T09:06:59;5.13;;;1.90;;
69161;SDS011;56269;51.738;21.652;2023-07-20T09:09:25;4.88;;;2.15;;
69161;SDS011;56269;51.738;21.652;2023-07-20T09:11:52;4.45;;;1.83;;
69161;SDS011;56269;51.738;21.652;2023-07-20T09:14:18;7.07;;;2.10;;
69161;SDS011;56269;51.738;21.652;2023-07-20T09:16:48;6.25;;;2.30;;
69161;SDS011;56269;51.738;21.652;2023-07-20T09:19:16;4.78;;;2.13;;
69161;SDS011;56269;51.738;21.652;2023-07-20T09:21:46;4.78;;;1.98;;
69161;SDS011;56269;51.738;21.652;2023-07-20T09:24:14;6.70;;;2.08;;
69161;SDS011;56269;51.738;21.652;2023-07-20T09:26:41;4.77;;;2.20;;
69161;SDS011;56269;51.738;21.652;2023-07-20T09:29:09;5.97;;;2.50;;
69161;SDS011;56269;51.738;21.652;2023-07-20T09:31:36;4.93;;;2.15;;
69161;SDS011;56269;51.738;21.652;2023-07-20T09:34:03;5.30;;;2.28;;
69161;SDS011;56269;51.738;21.652;2023-07-20T09:36:32;5.65;;;2.30;;
69161;SDS011;56269;51.738;21.652;2023-07-20T09:39:00;5.90;;;2.60;;
69161;SDS011;56269;51.738;21.652;2023-07-20T09:41:26;6.00;;;2.60;;
69161;SDS011;56269;51.738;21.652;2023-07-20T09:43:52;5.35;;;2.42;;
69161;SDS011;56269;51.738;21.652;2023-07-20T09:46:19;5.13;;;2.35;;
69161;SDS011;56269;51.738;21.652;2023-07-20T09:48:51;5.63;;;2.25;;
69161;SDS011;56269;51.738;21.652;2023-07-20T09:51:22;6.23;;;2.53;;
69161;SDS011;56269;51.738;21.652;2023-07-20T09:53:51;5.97;;;2.72;;
69161;SDS011;56269;51.738;21.652;2023-07-20T09:56:21;5.80;;;2.58;;
69161;SDS011;56269;51.738;21.652;2023-07-20T09:58:49;5.97;;;2.85;;
69161;SDS011;56269;51.738;21.652;2023-07-20T10:01:17;5.78;;;2.72;;
69161;SDS011;56269;51.738;21.652;2023-07-20T10:03:46;5.73;;;2.70;;
69161;SDS011;56269;51.738;21.652;2023-07-20T10:06:15;6.10;;;2.72;;
69161;SDS011;56269;51.738;21.652;2023-07-20T10:08:49;6.53;;;2.80;;
69161;SDS011;56269;51.738;21.652;2023-07-20T10:11:18;7.35;;;2.83;;
69161;SDS011;56269;51.738;21.652;2023-07-20T10:13:48;7.10;;;3.10;;
69161;SDS011;56269;51.738;21.652;2023-07-20T10:16:22;6.27;;;2.87;;
69161;SDS011;56269;51.738;21.652;2023-07-20T10:21:32;6.50;;;2.92;;
69161;SDS011;56269;51.738;21.652;2023-07-20T10:24:01;8.18;;;3.35;;
69161;SDS011;56269;51.738;21.652;2023-07-20T10:26:28;7.03;;;3.10;;
69161;SDS011;56269;51.738;21.652;2023-07-20T10:28:54;7.27;;;2.87;;
69161;SDS011;56269;51.738;21.652;2023-07-20T10:31:22;6.32;;;2.85;;
69161;SDS011;56269;51.738;21.652;2023-07-20T10:33:49;6.55;;;3.17;;
69161;SDS011;56269;51.738;21.652;2023-07-20T10:36:16;7.40;;;3.22;;
69161;SDS011;56269;51.738;21.652;2023-07-20T10:38:52;6.30;;;2.95;;
69161;SDS011;56269;51.738;21.652;2023-07-20T10:41:20;5.03;;;2.30;;
69161;SDS011;56269;51.738;21.652;2023-07-20T10:44:09;6.65;;;2.92;;
69161;SDS011;56269;51.738;21.652;2023-07-20T10:49:05;7.22;;;3.20;;
69161;SDS011;56269;51.738;21.652;2023-07-20T10:51:39;6.05;;;2.92;;
69161;SDS011;56269;51.738;21.652;2023-07-20T10:54:08;5.90;;;2.93;;
69161;SDS011;56269;51.738;21.652;2023-07-20T10:56:58;6.57;;;2.90;;
69161;SDS011;56269;51.738;21.652;2023-07-20T11:00:06;6.80;;;3.13;;
69161;SDS011;56269;51.738;21.652;2023-07-20T11:02:49;6.55;;;2.83;;
69161;SDS011;56269;51.738;21.652;2023-07-20T11:05:34;6.05;;;2.88;;
69161;SDS011;56269;51.738;21.652;2023-07-20T11:08:03;6.53;;;2.97;;
69161;SDS011;56269;51.738;21.652;2023-07-20T11:10:30;6.15;;;2.80;;
69161;SDS011;56269;51.738;21.652;2023-07-20T11:18:26;6.25;;;3.00;;
69161;SDS011;56269;51.738;21.652;2023-07-20T11:20:53;6.33;;;3.00;;
69161;SDS011;56269;51.738;21.652;2023-07-20T11:23:19;5.82;;;2.60;;
69161;SDS011;56269;51.738;21.652;2023-07-20T11:25:46;6.53;;;3.22;;
69161;SDS011;56269;51.738;21.652;2023-07-20T11:28:13;5.25;;;2.58;;
69161;SDS011;56269;51.738;21.652;2023-07-20T11:30:38;5.23;;;2.10;;
69161;SDS011;56269;51.738;21.652;2023-07-20T11:33:05;4.75;;;2.00;;
69161;SDS011;56269;51.738;21.652;2023-07-20T11:35:43;5.28;;;2.17;;
69161;SDS011;56269;51.738;21.652;2023-07-20T11:38:11;4.72;;;2.03;;
69161;SDS011;56269;51.738;21.652;2023-07-20T11:40:42;6.15;;;2.55;;
69161;SDS011;56269;51.738;21.652;2023-07-20T11:43:10;5.57;;;2.50;;
69161;SDS011;56269;51.738;21.652;2023-07-20T11:45:38;5.57;;;2.60;;
69161;SDS011;56269;51.738;21.652;2023-07-20T11:48:05;5.25;;;2.33;;
69161;SDS011;56269;51.738;21.652;2023-07-20T11:50:31;4.80;;;2.03;;
69161;SDS011;56269;51.738;21.652;2023-07-20T11:52:57;4.85;;;2.10;;
69161;SDS011;56269;51.738;21.652;2023-07-20T11:55:24;5.70;;;2.53;;
69161;SDS011;56269;51.738;21.652;2023-07-20T11:58:03;4.97;;;2.05;;
69161;SDS011;56269;51.738;21.652;2023-07-20T12:00:34;5.28;;;2.33;;
69161;SDS011;56269;51.738;21.652;2023-07-20T12:03:04;6.13;;;2.63;;
69161;SDS011;56269;51.738;21.652;2023-07-20T12:05:36;5.00;;;2.05;;
69161;SDS011;56269;51.738;21.652;2023-07-20T12:08:04;5.80;;;2.53;;
69161;SDS011;56269;51.738;21.652;2023-07-20T12:10:30;5.32;;;2.20;;
69161;SDS011;56269;51.738;21.652;2023-07-20T12:13:02;5.05;;;2.05;;
69161;SDS011;56269;51.738;21.652;2023-07-20T12:15:32;5.63;;;2.35;;
69161;SDS011;56269;51.738;21.652;2023-07-20T12:18:00;5.60;;;2.50;;
69161;SDS011;56269;51.738;21.652;2023-07-20T12:20:31;4.80;;;2.30;;
69161;SDS011;56269;51.738;21.652;2023-07-20T12:23:09;5.30;;;2.20;;
69161;SDS011;56269;51.738;21.652;2023-07-20T12:25:40;5.43;;;2.22;;
69161;SDS011;56269;51.738;21.652;2023-07-20T12:28:08;5.18;;;2.17;;
69161;SDS011;56269;51.738;21.652;2023-07-20T12:30:36;6.95;;;2.40;;
69161;SDS011;56269;51.738;21.652;2023-07-20T12:33:06;5.67;;;2.50;;
69161;SDS011;56269;51.738;21.652;2023-07-20T12:35:32;5.43;;;2.30;;
69161;SDS011;56269;51.738;21.652;2023-07-20T12:37:59;5.85;;;2.28;;
69161;SDS011;56269;51.738;21.652;2023-07-20T12:40:26;5.07;;;2.40;;
69161;SDS011;56269;51.738;21.652;2023-07-20T12:42:52;5.47;;;2.65;;
69161;SDS011;56269;51.738;21.652;2023-07-20T12:45:18;4.77;;;2.20;;
69161;SDS011;56269;51.738;21.652;2023-07-20T12:47:44;5.30;;;2.22;;
69161;SDS011;56269;51.738;21.652;2023-07-20T12:50:11;5.25;;;2.45;;
69161;SDS011;56269;51.738;21.652;2023-07-20T12:52:38;5.70;;;2.42;;
69161;SDS011;56269;51.738;21.652;2023-07-20T12:55:05;6.05;;;2.25;;
69161;SDS011;56269;51.738;21.652;2023-07-20T12:57:33;5.33;;;2.40;;
69161;SDS011;56269;51.738;21.652;2023-07-20T13:00:00;5.75;;;2.38;;
69161;SDS011;56269;51.738;21.652;2023-07-20T13:02:30;5.78;;;2.33;;
69161;SDS011;56269;51.738;21.652;2023-07-20T13:04:56;6.18;;;2.30;;
69161;SDS011;56269;51.738;21.652;2023-07-20T13:07:30;6.00;;;2.50;;
69161;SDS011;56269;51.738;21.652;2023-07-20T13:09:57;5.23;;;2.10;;
69161;SDS011;56269;51.738;21.652;2023-07-20T13:12:26;5.10;;;2.10;;
69161;SDS011;56269;51.738;21.652;2023-07-20T13:14:53;5.05;;;2.20;;
69161;SDS011;56269;51.738;21.652;2023-07-20T13:17:24;5.05;;;2.25;;
69161;SDS011;56269;51.738;21.652;2023-07-20T13:19:50;5.90;;;2.30;;
69161;SDS011;56269;51.738;21.652;2023-07-20T13:22:16;5.17;;;2.20;;
69161;SDS011;56269;51.738;21.652;2023-07-20T13:24:44;4.93;;;2.10;;
69161;SDS011;56269;51.738;21.652;2023-07-20T13:27:12;4.97;;;1.90;;
69161;SDS011;56269;51.738;21.652;2023-07-20T13:29:38;4.85;;;2.00;;
69161;SDS011;56269;51.738;21.652;2023-07-20T13:32:04;5.05;;;2.22;;
69161;SDS011;56269;51.738;21.652;2023-07-20T13:34:31;5.20;;;2.17;;
69161;SDS011;56269;51.738;21.652;2023-07-20T13:36:57;5.63;;;2.25;;
69161;SDS011;56269;51.738;21.652;2023-07-20T13:39:24;4.95;;;1.98;;
69161;SDS011;56269;51.738;21.652;2023-07-20T13:41:52;4.72;;;1.77;;
69161;SDS011;56269;51.738;21.652;2023-07-20T13:44:20;4.82;;;2.20;;
69161;SDS011;56269;51.738;21.652;2023-07-20T13:46:47;3.77;;;1.60;;
69161;SDS011;56269;51.738;21.652;2023-07-20T13:49:13;4.90;;;2.00;;
69161;SDS011;56269;51.738;21.652;2023-07-20T13:51:43;4.53;;;1.95;;
69161;SDS011;56269;51.738;21.652;2023-07-20T13:54:09;5.53;;;2.20;;
69161;SDS011;56269;51.738;21.652;2023-07-20T13:56:35;4.57;;;1.83;;
69161;SDS011;56269;51.738;21.652;2023-07-20T13:59:01;5.40;;;2.03;;
69161;SDS011;56269;51.738;21.652;2023-07-20T14:01:28;5.40;;;2.40;;
69161;SDS011;56269;51.738;21.652;2023-07-20T14:03:55;5.80;;;2.30;;
69161;SDS011;56269;51.738;21.652;2023-07-20T14:06:22;5.68;;;2.17;;
69161;SDS011;56269;51.738;21.652;2023-07-20T14:08:48;5.43;;;2.10;;
69161;SDS011;56269;51.738;21.652;2023-07-20T14:11:15;4.73;;;2.07;;
69161;SDS011;56269;51.738;21.652;2023-07-20T14:13:42;5.20;;;2.40;;
69161;SDS011;56269;51.738;21.652;2023-07-20T14:16:08;5.00;;;2.13;;
69161;SDS011;56269;51.738;21.652;2023-07-20T14:18:35;5.63;;;1.98;;
69161;SDS011;56269;51.738;21.652;2023-07-20T14:21:01;5.30;;;2.08;;
69161;SDS011;56269;51.738;21.652;2023-07-20T14:23:28;4.70;;;2.10;;
69161;SDS011;56269;51.738;21.652;2023-07-20T14:25:55;3.88;;;1.65;;
69161;SDS011;56269;51.738;21.652;2023-07-20T14:28:21;4.07;;;1.65;;
69161;SDS011;56269;51.738;21.652;2023-07-20T14:30:47;5.43;;;2.10;;
69161;SDS011;56269;51.738;21.652;2023-07-20T14:33:13;5.30;;;2.20;;
69161;SDS011;56269;51.738;21.652;2023-07-20T14:35:40;4.85;;;2.00;;
69161;SDS011;56269;51.738;21.652;2023-07-20T14:38:06;5.18;;;2.17;;
69161;SDS011;56269;51.738;21.652;2023-07-20T14:40:32;5.80;;;2.20;;
69161;SDS011;56269;51.738;21.652;2023-07-20T14:42:58;6.28;;;2.55;;
69161;SDS011;56269;51.738;21.652;2023-07-20T14:45:27;4.67;;;2.00;;
69161;SDS011;56269;51.738;21.652;2023-07-20T14:47:53;5.32;;;2.45;;
69161;SDS011;56269;51.738;21.652;2023-07-20T14:50:20;5.22;;;2.40;;